Time;durP1;ratioP1;P1;durP2;ratioP2;P2;SDS_P1;SDS_P2;PMS_P1;PMS_P2;Temp;Humidity;BMP_temperature;BMP_pressure;BME280_temperature;BME280_humidity;BME280_pressure;Samples;Min_cycle;Max_cycle;Signal;HPM_P1;HPM_P2
2023/04/15 00:10:01;;;;;;;0.40;0.10;;;1.10;99.90;;;;;;20752182;28;20034;-47
2023/04/15 00:20:05;;;;;;;0.38;0.10;;;1.30;99.90;;;;;;20749898;28;20573;-58
2023/04/15 00:30:07;;;;;;;0.63;0.22;;;1.60;99.90;;;;;;20750726;28;20038;-59
2023/04/15 00:40:12;;;;;;;0.20;0.10;;;2.10;99.90;;;;;;20749725;28;20048;-48
2023/04/15 00:50:14;;;;;;;0.40;0.13;;;1.70;99.90;;;;;;20749170;28;20092;-50
2023/04/15 01:00:16;;;;;;;0.55;0.00;;;1.20;99.90;;;;;;20748212;28;20032;-48
2023/04/15 01:10:17;;;;;;;0.63;0.10;;;1.10;99.90;;;;;;20747551;28;20034;-49
2023/04/15 01:20:19;;;;;;;1.50;0.20;;;1.10;99.90;;;;;;20746531;28;20054;-48
2023/04/15 01:30:21;;;;;;;0.47;0.20;;;1.40;99.90;;;;;;20744920;28;20048;-60
2023/04/15 01:40:22;;;;;;;0.30;0.20;;;1.50;99.90;;;;;;20745168;28;20038;-52
2023/04/15 01:50:26;;;;;;;1.13;0.30;;;1.50;99.90;;;;;;20746411;28;20034;-50
2023/04/15 02:00:31;;;;;;;0.60;0.10;;;1.30;99.90;;;;;;20743367;28;20442;-49
2023/04/15 02:10:35;;;;;;;0.40;0.10;;;1.30;99.90;;;;;;20741681;28;20042;-59
2023/04/15 02:20:38;;;;;;;0.57;0.25;;;1.30;99.90;;;;;;20743122;28;20045;-49
2023/04/15 02:30:41;;;;;;;1.17;0.10;;;1.30;99.90;;;;;;20742292;28;20467;-48
2023/04/15 02:40:44;;;;;;;0.30;0.10;;;1.40;99.90;;;;;;20740962;28;20495;-49
2023/04/15 02:50:47;;;;;;;0.70;0.10;;;1.40;99.90;;;;;;20740632;28;20040;-52
2023/04/15 03:00:51;;;;;;;0.00;0.00;;;1.70;99.90;;;;;;20738080;28;20104;-50
2023/04/15 03:10:54;;;;;;;0.35;0.10;;;1.60;99.90;;;;;;20740713;28;20438;-51
2023/04/15 03:20:58;;;;;;;0.45;0.17;;;1.30;99.90;;;;;;20741239;28;20050;-52
2023/04/15 03:31:01;;;;;;;0.40;0.10;;;1.30;99.90;;;;;;20754281;28;20080;-50
2023/04/15 03:41:05;;;;;;;0.30;0.10;;;1.10;99.90;;;;;;20754975;28;20100;-52
2023/04/15 03:51:08;;;;;;;0.25;0.05;;;1.20;99.90;;;;;;20754333;28;20107;-50
2023/04/15 04:01:11;;;;;;;0.98;0.13;;;0.90;99.90;;;;;;20753415;28;20042;-50
2023/04/15 04:11:13;;;;;;;0.13;0.00;;;0.40;99.90;;;;;;20752887;28;20561;-49
2023/04/15 04:21:16;;;;;;;0.10;0.05;;;0.20;99.90;;;;;;20745934;28;20073;-58
2023/04/15 04:31:20;;;;;;;0.57;0.10;;;0.50;99.90;;;;;;20745568;28;20038;-59
2023/04/15 04:41:22;;;;;;;0.80;0.10;;;0.80;99.90;;;;;;20745871;28;20100;-47
2023/04/15 04:51:25;;;;;;;0.20;0.10;;;1.00;99.90;;;;;;20743218;28;20050;-60
2023/04/15 05:01:28;;;;;;;0.43;0.10;;;0.80;99.90;;;;;;20744029;28;20049;-49
2023/04/15 05:11:31;;;;;;;0.10;0.00;;;0.60;99.90;;;;;;20744181;28;20395;-50
2023/04/15 05:21:34;;;;;;;0.63;0.20;;;0.80;99.90;;;;;;20706280;28;1216208;-60
2023/04/15 05:31:37;;;;;;;1.42;0.05;;;1.10;99.90;;;;;;20747049;28;20549;-49
2023/04/15 05:41:40;;;;;;;0.03;0.00;;;1.10;99.90;;;;;;20745344;28;20034;-51
2023/04/15 05:51:43;;;;;;;0.52;0.00;;;1.70;99.90;;;;;;20744051;28;20491;-48
2023/04/15 06:01:46;;;;;;;0.55;0.08;;;2.50;99.90;;;;;;20744209;28;20053;-61
2023/04/15 06:11:49;;;;;;;0.68;0.10;;;2.70;98.70;;;;;;20742853;28;20049;-50
2023/04/15 06:21:52;;;;;;;0.20;0.10;;;3.10;98.00;;;;;;20742132;28;20042;-50
2023/04/15 06:31:55;;;;;;;0.40;0.00;;;3.20;98.00;;;;;;20738766;28;20103;-63
2023/04/15 06:41:58;;;;;;;1.02;0.08;;;4.00;97.20;;;;;;20740927;28;20042;-50
2023/04/15 06:52:01;;;;;;;0.30;0.10;;;5.60;94.10;;;;;;20742202;28;20046;-52
2023/04/15 07:02:04;;;;;;;0.30;0.08;;;6.50;93.10;;;;;;20740864;28;20045;-50
2023/04/15 07:12:07;;;;;;;0.35;0.10;;;7.00;91.50;;;;;;20741874;28;20092;-51
2023/04/15 07:22:10;;;;;;;0.20;0.10;;;7.20;90.80;;;;;;20739996;28;20061;-52
2023/04/15 07:32:13;;;;;;;0.13;0.10;;;7.00;92.10;;;;;;20736368;28;20553;-49
2023/04/15 07:42:16;;;;;;;0.40;0.10;;;7.10;92.60;;;;;;20737919;28;20050;-63
2023/04/15 07:52:19;;;;;;;2.03;0.20;;;7.40;90.10;;;;;;20739899;28;20054;-47
2023/04/15 08:02:22;;;;;;;0.38;0.05;;;7.50;90.50;;;;;;20737471;28;20046;-51
2023/04/15 08:12:25;;;;;;;0.80;0.10;;;7.70;90.20;;;;;;20748230;28;20443;-48
2023/04/15 08:22:28;;;;;;;0.47;0.10;;;8.10;85.80;;;;;;20749601;28;20058;-50
2023/04/15 08:32:31;;;;;;;0.68;0.10;;;7.90;84.00;;;;;;20751094;28;20135;-52
2023/04/15 08:42:43;;;;;;;1.27;0.10;;;7.90;85.60;;;;;;20749736;28;20443;-62
2023/04/15 08:52:46;;;;;;;1.40;0.10;;;8.20;79.60;;;;;;20749595;28;20042;-62
2023/04/15 09:02:49;;;;;;;0.63;0.20;;;8.20;79.30;;;;;;20747207;28;20112;-49
2023/04/15 09:12:52;;;;;;;0.93;0.10;;;9.00;79.20;;;;;;20747319;28;20445;-52
2023/04/15 09:22:55;;;;;;;1.35;0.13;;;9.90;76.80;;;;;;20702071;28;20092;-62
2023/04/15 09:33:09;;;;;;;0.10;0.00;;;10.50;79.40;;;;;;20677307;28;20073;-62
2023/04/15 09:43:12;;;;;;;0.52;0.10;;;11.20;85.90;;;;;;20702005;28;20423;-63
2023/04/15 09:53:18;;;;;;;0.63;0.20;;;11.70;85.20;;;;;;20704962;28;20034;-50
2023/04/15 10:03:22;;;;;;;0.13;0.08;;;12.40;81.60;;;;;;20741122;28;20033;-52
2023/04/15 10:13:28;;;;;;;0.30;0.10;;;12.70;83.20;;;;;;20713902;28;20096;-53
2023/04/15 10:23:32;;;;;;;0.60;0.10;;;13.10;87.20;;;;;;20704063;28;20103;-48
2023/04/15 10:33:35;;;;;;;0.40;0.15;;;13.10;76.00;;;;;;20664083;28;20344;-49
2023/04/15 10:43:38;;;;;;;0.50;0.30;;;13.10;80.90;;;;;;20707650;28;20050;-49
2023/04/15 10:53:41;;;;;;;1.80;0.50;;;13.90;88.50;;;;;;20741189;28;20443;-49
2023/04/15 11:03:45;;;;;;;0.38;0.20;;;14.50;88.30;;;;;;20740465;28;20041;-49
2023/04/15 11:13:50;;;;;;;0.70;0.47;;;13.30;69.40;;;;;;20739504;28;20045;-61
2023/04/15 11:23:53;;;;;;;3.55;2.25;;;10.70;75.70;;;;;;20739639;28;20072;-52
2023/04/15 11:33:58;;;;;;;3.47;2.33;;;11.40;93.40;;;;;;20739355;28;20119;-52
2023/04/15 11:44:01;;;;;;;6.30;2.80;;;11.40;91.10;;;;;;20745963;28;20042;-49
2023/04/15 11:54:04;;;;;;;6.32;3.85;;;12.20;94.70;;;;;;20755543;28;20038;-51
2023/04/15 12:04:19;;;;;;;5.40;3.92;;;12.00;94.10;;;;;;20750132;28;20022;-53
2023/04/15 12:14:25;;;;;;;5.70;3.90;;;12.70;95.50;;;;;;20751366;28;20034;-50
2023/04/15 12:24:30;;;;;;;6.13;3.90;;;13.10;93.70;;;;;;20751389;28;20391;-49
2023/04/15 12:34:37;;;;;;;8.35;4.50;;;12.80;97.60;;;;;;20734027;28;20034;-54
2023/04/15 12:44:40;;;;;;;5.55;4.00;;;12.00;95.10;;;;;;20749910;28;20037;-63
2023/04/15 12:54:41;;;;;;;5.20;4.20;;;11.20;97.30;;;;;;20748931;28;20479;-52
2023/04/15 13:04:43;;;;;;;5.63;4.35;;;11.20;96.80;;;;;;20745766;28;20034;-54
2023/04/15 13:14:45;;;;;;;6.22;4.90;;;10.70;97.10;;;;;;20746129;28;20041;-62
2023/04/15 13:24:46;;;;;;;5.72;4.40;;;10.70;98.90;;;;;;20743399;28;20038;-62
2023/04/15 13:34:48;;;;;;;6.78;4.45;;;10.70;99.90;;;;;;20691488;28;20089;-53
2023/04/15 13:44:50;;;;;;;5.97;4.18;;;10.40;99.90;;;;;;20720572;28;20029;-54
2023/04/15 13:54:52;;;;;;;4.07;3.28;;;9.70;99.90;;;;;;20744576;28;20439;-54
2023/04/15 14:04:54;;;;;;;4.38;3.42;;;8.80;99.90;;;;;;20740344;28;20100;-61
2023/04/15 14:14:55;;;;;;;5.22;3.80;;;8.00;99.90;;;;;;20742673;28;20050;-52
2023/04/15 14:24:57;;;;;;;8.50;4.72;;;6.90;99.90;;;;;;20742350;28;20034;-50
2023/04/15 14:34:59;;;;;;;6.57;4.80;;;6.30;99.90;;;;;;20740689;28;20472;-49
2023/04/15 14:45:00;;;;;;;5.80;5.20;;;6.30;99.90;;;;;;20741784;28;20033;-52
2023/04/15 14:55:02;;;;;;;6.53;5.03;;;6.40;99.90;;;;;;20739877;28;20092;-48
2023/04/15 15:05:04;;;;;;;7.28;4.35;;;6.40;99.90;;;;;;20739774;28;20129;-62
2023/04/15 15:15:06;;;;;;;3.75;3.05;;;6.40;99.90;;;;;;20738902;28;20054;-52
2023/04/15 15:25:08;;;;;;;3.65;2.50;;;6.50;99.90;;;;;;20733762;28;20049;-61
2023/04/15 15:35:10;;;;;;;3.83;2.60;;;6.70;99.90;;;;;;20686159;28;20172;-50
2023/04/15 15:45:12;;;;;;;4.10;2.90;;;6.90;99.90;;;;;;20754057;28;20037;-62
2023/04/15 15:55:13;;;;;;;5.00;3.60;;;7.10;99.90;;;;;;20752765;28;20096;-53
2023/04/15 16:05:15;;;;;;;4.97;3.35;;;7.10;99.90;;;;;;20753269;28;20033;-49
2023/04/15 16:15:17;;;;;;;5.07;3.28;;;7.20;99.90;;;;;;20749165;28;20092;-49
2023/04/15 16:25:19;;;;;;;3.92;3.13;;;7.30;99.90;;;;;;20750354;28;20034;-61
2023/04/15 16:35:20;;;;;;;4.85;3.28;;;7.30;99.90;;;;;;20747610;28;20044;-61
2023/04/15 16:45:22;;;;;;;5.57;3.90;;;7.40;99.90;;;;;;20749938;28;20034;-50
2023/04/15 16:55:24;;;;;;;3.40;2.97;;;7.40;99.90;;;;;;20764099;28;20042;-61
2023/04/15 17:05:26;;;;;;;4.38;3.42;;;7.50;99.90;;;;;;20749738;28;20033;-61
2023/04/15 17:15:27;;;;;;;5.25;3.50;;;7.10;99.90;;;;;;20747322;28;20053;-50
2023/04/15 17:25:44;;;;;;;4.68;2.97;;;6.40;99.90;;;;;;20745664;28;20115;-60
2023/04/15 17:35:46;;;;;;;5.40;3.33;;;6.00;99.90;;;;;;20746331;28;20044;-60
2023/04/15 17:46:07;;;;;;;3.42;1.92;;;5.40;99.90;;;;;;20740247;28;20463;-51
2023/04/15 17:56:29;;;;;;;3.63;2.40;;;4.90;99.90;;;;;;20743994;28;20060;-60
2023/04/15 18:06:51;;;;;;;4.38;2.92;;;4.70;99.90;;;;;;20742395;28;20042;-59
2023/04/15 18:17:13;;;;;;;4.95;2.78;;;4.30;99.90;;;;;;20742123;28;20105;-49
2023/04/15 18:27:38;;;;;;;5.03;2.20;;;3.70;99.90;;;;;;20714009;28;20034;-50
2023/04/15 18:37:39;;;;;;;3.08;1.40;;;3.00;99.90;;;;;;20739631;28;20034;-51
2023/04/15 18:47:41;;;;;;;1.60;1.02;;;2.50;99.90;;;;;;20743066;28;20048;-50
2023/04/15 18:57:45;;;;;;;2.72;0.85;;;2.20;99.90;;;;;;20738522;28;20399;-59
2023/04/15 19:07:47;;;;;;;3.03;0.80;;;2.00;99.90;;;;;;20735779;28;20069;-51
2023/04/15 19:17:48;;;;;;;1.40;0.70;;;1.90;99.90;;;;;;20738057;28;20045;-52
2023/04/15 19:27:50;;;;;;;1.63;0.52;;;1.80;99.90;;;;;;20737140;28;20029;-59
2023/04/15 19:37:51;;;;;;;0.50;0.30;;;1.80;99.90;;;;;;20716679;28;20363;-51
2023/04/15 19:47:53;;;;;;;2.05;0.47;;;1.80;99.90;;;;;;20655345;28;20515;-58
2023/04/15 19:57:55;;;;;;;2.55;0.40;;;2.70;99.90;;;;;;20721804;28;20505;-52
2023/04/15 20:07:57;;;;;;;0.70;0.30;;;2.80;99.90;;;;;;20747246;28;20038;-52
2023/04/15 20:17:59;;;;;;;2.95;0.30;;;2.80;99.90;;;;;;20751995;28;20073;-51
2023/04/15 20:28:01;;;;;;;0.50;0.17;;;2.40;99.90;;;;;;20750499;28;20034;-49
2023/04/15 20:38:03;;;;;;;1.85;0.30;;;2.40;99.90;;;;;;20749651;28;20038;-49
2023/04/15 20:48:05;;;;;;;0.50;0.30;;;2.30;99.90;;;;;;20748652;28;20030;-52
2023/04/15 20:58:06;;;;;;;0.80;0.25;;;2.10;99.90;;;;;;20748091;28;20026;-51
2023/04/15 21:08:08;;;;;;;1.25;0.45;;;1.80;99.90;;;;;;20746455;28;20034;-50
2023/04/15 21:18:10;;;;;;;1.45;0.30;;;1.80;99.90;;;;;;20746360;28;20096;-51
2023/04/15 21:28:11;;;;;;;1.48;0.30;;;1.70;99.90;;;;;;20746417;28;20115;-52
2023/04/15 21:38:13;;;;;;;0.73;0.32;;;1.80;99.90;;;;;;20745399;28;20034;-51
2023/04/15 21:48:15;;;;;;;1.52;0.30;;;2.00;99.90;;;;;;20744222;28;20551;-51
2023/04/15 21:58:17;;;;;;;0.57;0.22;;;2.10;99.90;;;;;;20744468;28;20104;-48
2023/04/15 22:08:18;;;;;;;2.45;1.23;;;2.00;99.90;;;;;;20742918;28;20032;-52
2023/04/15 22:18:20;;;;;;;1.05;0.30;;;2.50;99.90;;;;;;20743431;28;20048;-51
2023/04/15 22:28:22;;;;;;;1.20;0.22;;;2.20;99.90;;;;;;20741751;28;20091;-52
2023/04/15 22:38:23;;;;;;;0.55;0.20;;;1.90;99.90;;;;;;20741589;28;20025;-51
2023/04/15 22:48:25;;;;;;;1.17;0.20;;;1.60;99.90;;;;;;20741542;28;20034;-50
2023/04/15 22:58:27;;;;;;;0.55;0.30;;;1.40;99.90;;;;;;20740463;28;20045;-47
2023/04/15 23:08:28;;;;;;;0.70;0.38;;;1.30;99.90;;;;;;20739995;28;20453;-47
2023/04/15 23:18:30;;;;;;;0.50;0.20;;;1.30;99.90;;;;;;20739735;28;20068;-51
2023/04/15 23:28:31;;;;;;;1.17;0.40;;;1.30;99.90;;;;;;20738900;28;20061;-51
2023/04/15 23:38:34;;;;;;;0.60;0.30;;;1.40;99.90;;;;;;20742825;28;20394;-50
2023/04/15 23:48:35;;;;;;;0.80;0.30;;;1.40;99.90;;;;;;20754865;28;20083;-50
2023/04/15 23:58:37;;;;;;;0.38;0.20;;;1.40;99.90;;;;;;20753611;28;20379;-50
